createdAt,value
2018-11-04T00:02:41.189Z,102148.81
2018-11-04T00:06:45.136Z,102133.23
2018-11-04T00:10:49.280Z,102138.37
2018-11-04T00:14:53.218Z,102133.12
2018-11-04T00:18:57.365Z,102120.58
2018-11-04T00:23:01.309Z,102109.33
2018-11-04T00:27:05.695Z,102100.66
2018-11-04T00:31:09.904Z,102095.47
2018-11-04T00:35:13.756Z,102092.45
2018-11-04T00:39:18.304Z,102088.14
2018-11-04T00:43:22.196Z,102083.37
2018-11-04T00:47:27.520Z,102081.16
2018-11-04T00:51:31.420Z,102081.11
2018-11-04T00:55:35.271Z,102078.09
2018-11-04T00:59:40.864Z,102075.08
2018-11-04T01:03:45.281Z,102068.16
2018-11-04T01:07:49.671Z,102063.78
2018-11-04T01:11:54.329Z,102060.70
2018-11-04T01:15:58.659Z,102066.32
2018-11-04T01:20:02.868Z,102056.37
2018-11-04T01:24:07.136Z,102055.07
2018-11-04T01:28:11.553Z,102056.73
2018-11-04T01:32:17.274Z,102052.83
2018-11-04T01:36:22.053Z,102051.53
2018-11-04T01:40:26.276Z,102053.26
2018-11-04T01:44:31.223Z,102049.78
2018-11-04T01:48:35.560Z,102042.86
2018-11-04T01:52:39.924Z,102029.87
2018-11-04T01:56:44.363Z,102016.06
2018-11-04T02:00:48.993Z,102017.37
2018-11-04T02:04:53.224Z,102010.05
2018-11-04T02:08:58.033Z,102008.75
2018-11-04T02:13:02.382Z,102006.99
2018-11-04T02:17:06.536Z,101996.11
2018-11-04T02:21:10.667Z,102000.36
2018-11-04T02:25:15.097Z,101990.87
2018-11-04T02:29:19.364Z,101983.05
2018-11-04T02:33:24.067Z,101979.57
2018-11-04T02:37:28.145Z,101979.98
2018-11-04T02:41:32.519Z,101968.33
2018-11-04T02:45:36.640Z,101967.95
2018-11-04T02:49:41.781Z,101966.63
2018-11-04T02:53:45.920Z,101968.34
2018-11-04T02:57:50.510Z,101957.98
2018-11-04T03:01:54.664Z,101957.09
2018-11-04T03:05:58.701Z,101958.36
2018-11-04T03:10:02.998Z,101951.00
2018-11-04T03:14:07.127Z,101949.22
2018-11-04T03:18:11.486Z,101952.26
2018-11-04T03:22:15.872Z,101936.71
2018-11-04T03:26:20.101Z,101932.86
2018-11-04T03:30:24.293Z,101927.64
2018-11-04T03:34:28.721Z,101924.14
2018-11-04T03:38:32.795Z,101916.34
2018-11-04T03:42:36.869Z,101915.92
2018-11-04T03:46:41.168Z,101918.52
2018-11-04T03:50:45.809Z,101915.52
2018-11-04T03:54:50.285Z,101912.03
2018-11-04T03:58:55.146Z,101906.39
2018-11-04T04:02:59.773Z,101898.98
2018-11-04T04:07:05.579Z,101907.66
2018-11-04T04:11:09.949Z,101904.16
2018-11-04T04:15:15.480Z,101904.56
2018-11-04T04:19:19.572Z,101899.85
2018-11-04T04:23:23.611Z,101900.27
2018-11-04T04:27:27.939Z,101899.86
2018-11-04T04:31:32.382Z,101896.80
2018-11-04T04:35:36.530Z,101897.22
2018-11-04T04:39:40.998Z,101894.59
2018-11-04T04:43:45.027Z,101896.33
2018-11-04T04:47:49.089Z,101891.98
2018-11-04T04:51:53.136Z,101891.93
2018-11-04T04:55:58.050Z,101891.93
2018-11-04T05:00:02.135Z,101884.16
2018-11-04T05:04:06.290Z,101878.97
2018-11-04T05:08:10.941Z,101874.22
2018-11-04T05:12:15.025Z,101873.84
2018-11-04T05:16:19.160Z,101866.08
2018-11-04T05:20:23.390Z,101862.20
2018-11-04T05:24:27.896Z,101860.02
2018-11-04T05:28:31.935Z,101857.39
2018-11-04T05:32:35.972Z,101860.84
2018-11-04T05:36:39.953Z,101856.89
2018-11-04T05:40:43.981Z,101859.03
2018-11-04T05:44:47.984Z,101858.17
2018-11-04T05:48:51.985Z,101853.00
2018-11-04T05:52:56.646Z,101855.19
2018-11-04T05:57:00.690Z,101849.56
2018-11-04T06:01:05.856Z,101845.72
2018-11-04T06:05:11.133Z,101837.95
2018-11-04T06:09:15.029Z,101837.90
2018-11-04T06:13:18.912Z,101830.59
2018-11-04T06:17:23.225Z,101834.88
2018-11-04T06:21:27.065Z,101829.28
2018-11-04T06:25:31.184Z,101838.32
2018-11-04T06:29:35.323Z,101827.52
2018-11-04T06:33:39.583Z,101838.78
2018-11-04T06:37:43.644Z,101837.52
2018-11-04T06:41:47.667Z,101847.90
2018-11-04T06:45:51.954Z,101849.59
2018-11-04T06:49:56.261Z,101839.25
2018-11-04T06:54:00.375Z,101845.73
2018-11-04T06:58:05.396Z,101849.61
2018-11-04T07:02:09.726Z,101853.00
2018-11-04T07:06:13.934Z,101848.76
2018-11-04T07:10:18.321Z,101843.55
2018-11-04T07:14:22.591Z,101841.89
2018-11-04T07:18:27.117Z,101836.28
2018-11-04T07:22:31.276Z,101845.38
2018-11-04T07:26:36.053Z,101837.70
2018-11-04T07:30:40.040Z,101834.18
2018-11-04T07:34:44.054Z,101831.17
2018-11-04T07:38:48.024Z,101832.08
2018-11-04T07:42:52.277Z,101825.66
2018-11-04T07:46:56.446Z,101834.31
2018-11-04T07:51:00.886Z,101841.41
2018-11-04T07:55:08.231Z,101826.30
2018-11-04T07:59:12.574Z,101829.45
2018-11-04T08:03:16.771Z,101833.44
2018-11-04T08:07:20.776Z,101835.59
2018-11-04T08:11:24.728Z,101829.91
2018-11-04T08:15:29.263Z,101826.44
2018-11-04T08:19:33.349Z,101822.55
2018-11-04T08:23:37.747Z,101817.38
2018-11-04T08:27:41.888Z,101813.88
2018-11-04T08:31:46.773Z,101815.47
2018-11-04T08:35:50.813Z,101808.88
2018-11-04T08:39:55.247Z,101808.73
2018-11-04T08:44:00.421Z,101787.33
2018-11-04T08:48:05.394Z,101788.75
2018-11-04T08:52:09.368Z,101781.08
2018-11-04T08:56:13.326Z,101778.44
2018-11-04T09:00:17.433Z,101774.42
2018-11-04T09:04:21.731Z,101764.47
2018-11-04T09:08:26.641Z,101756.03
2018-11-04T09:12:30.644Z,101755.37
2018-11-04T09:16:34.625Z,101758.06
2018-11-04T09:20:38.592Z,101758.96
2018-11-04T09:24:42.566Z,101752.97
2018-11-04T09:28:46.670Z,101737.91
2018-11-04T09:32:50.648Z,101739.11
2018-11-04T09:36:54.719Z,101738.82
2018-11-04T09:40:58.800Z,101722.72
2018-11-04T09:45:02.883Z,101726.14
2018-11-04T09:49:07.256Z,101717.73
2018-11-04T09:53:11.363Z,101712.72
2018-11-04T09:57:15.792Z,101706.85
2018-11-04T10:01:19.862Z,101701.48
2018-11-04T10:05:28.554Z,101697.84
2018-11-04T10:09:34.463Z,101692.54
2018-11-04T10:13:40.087Z,101677.47
2018-11-04T10:17:46.211Z,101674.14
2018-11-04T10:21:52.607Z,101674.77
2018-11-04T10:25:57.359Z,101666.19
2018-11-04T10:30:01.286Z,101666.37
2018-11-04T10:34:05.643Z,101659.38
2018-11-04T10:38:09.757Z,101657.35
2018-11-04T10:42:15.447Z,101653.84
2018-11-04T10:46:20.687Z,101651.37
2018-11-04T10:50:24.897Z,101639.61
2018-11-04T10:54:29.792Z,101644.84
2018-11-04T10:58:35.420Z,101636.44
2018-11-04T11:02:40.042Z,101628.20
2018-11-04T11:06:45.146Z,101612.75
2018-11-04T11:10:49.073Z,101603.81
2018-11-04T11:14:52.979Z,101606.05
2018-11-04T11:18:56.886Z,101590.09
2018-11-04T11:23:01.093Z,101579.53
2018-11-04T11:27:05.419Z,101573.72
2018-11-04T11:31:09.336Z,101554.03
2018-11-04T11:35:13.213Z,101554.38
2018-11-04T11:39:17.400Z,101555.70
2018-11-04T11:43:21.290Z,101541.80
2018-11-04T11:47:25.996Z,101537.53
2018-11-04T11:51:32.383Z,101527.70
2018-11-04T11:55:36.768Z,101530.31
2018-11-04T11:59:43.117Z,101517.11
2018-11-04T12:03:48.644Z,101518.22
2018-11-04T12:07:52.594Z,101513.00
2018-11-04T12:11:57.230Z,101505.02
2018-11-04T12:16:01.207Z,101493.61
2018-11-04T12:20:07.524Z,101497.73
2018-11-04T12:24:11.511Z,101492.23
2018-11-04T12:28:15.478Z,101488.98
2018-11-04T12:32:19.991Z,101479.70
2018-11-04T12:36:23.859Z,101480.99
2018-11-04T12:40:27.787Z,101473.97
2018-11-04T12:44:31.853Z,101463.94
2018-11-04T12:48:36.536Z,101466.34
2018-11-04T12:52:41.047Z,101452.42
2018-11-04T12:56:44.936Z,101452.42
2018-11-04T13:00:48.814Z,101442.70
2018-11-04T13:04:52.821Z,101444.13
2018-11-04T13:08:56.696Z,101435.94
2018-11-04T13:13:00.612Z,101431.04
2018-11-04T13:17:04.952Z,101426.42
2018-11-04T13:21:09.094Z,101418.69
2018-11-04T13:25:12.982Z,101421.08
2018-11-04T13:29:16.941Z,101417.94
2018-11-04T13:33:20.967Z,101419.23
2018-11-04T13:37:25.195Z,101416.55
2018-11-04T13:41:29.092Z,101408.46
2018-11-04T13:45:33.984Z,101408.92
2018-11-04T13:49:38.436Z,101400.22
2018-11-04T13:53:42.563Z,101398.02
2018-11-04T13:57:46.431Z,101397.32
2018-11-04T14:01:50.484Z,101405.05
2018-11-04T14:05:54.389Z,101409.94
2018-11-04T14:09:58.588Z,101405.41
2018-11-04T14:14:03.289Z,101399.17
2018-11-04T14:18:07.200Z,101395.89
2018-11-04T14:22:11.764Z,101391.64
2018-11-04T14:26:15.671Z,101390.50
2018-11-04T14:30:19.716Z,101383.97
2018-11-04T14:34:23.572Z,101385.10
2018-11-04T14:38:27.812Z,101384.88
2018-11-04T14:42:31.842Z,101386.44
2018-11-04T14:46:36.184Z,101378.75
2018-11-04T14:50:40.029Z,101383.34
2018-11-04T14:54:44.022Z,101377.52
2018-11-04T14:58:48.294Z,101373.03
2018-11-04T15:02:52.112Z,101369.36
2018-11-04T15:06:56.032Z,101370.79
2018-11-04T15:10:59.948Z,101370.61
2018-11-04T15:15:08.286Z,101366.42
2018-11-04T15:19:12.230Z,101362.18
2018-11-04T15:23:16.079Z,101362.89
2018-11-04T15:27:19.980Z,101355.61
2018-11-04T15:31:23.918Z,101347.83
2018-11-04T15:35:28.112Z,101355.80
2018-11-04T15:39:31.988Z,101352.39
2018-11-04T15:43:35.872Z,101357.91
2018-11-04T15:47:40.195Z,101360.23
2018-11-04T15:51:44.158Z,101359.98
2018-11-04T15:55:48.291Z,101360.58
2018-11-04T15:59:52.162Z,101356.09
2018-11-04T16:03:56.046Z,101353.59
2018-11-04T16:07:59.999Z,101362.41
2018-11-04T16:12:03.860Z,101359.08
2018-11-04T16:16:07.770Z,101365.16
2018-11-04T16:20:13.053Z,101352.82
2018-11-04T16:24:16.969Z,101358.66
2018-11-04T16:28:21.097Z,101355.33
2018-11-04T16:32:25.016Z,101355.13
2018-11-04T16:36:29.318Z,101358.70
2018-11-04T16:40:33.262Z,101347.38
2018-11-04T16:44:37.251Z,101348.80
2018-11-04T16:48:41.091Z,101347.95
2018-11-04T16:52:45.850Z,101340.74
2018-11-04T16:56:49.752Z,101345.12
2018-11-04T17:00:54.020Z,101345.37
2018-11-04T17:04:57.992Z,101353.72
2018-11-04T17:09:03.306Z,101356.25
2018-11-04T17:13:07.265Z,101355.32
2018-11-04T17:17:11.583Z,101356.97
2018-11-04T17:21:15.450Z,101349.16
2018-11-04T17:25:24.039Z,101356.59
2018-11-04T17:29:31.050Z,101343.08
2018-11-04T17:33:35.387Z,101342.72
2018-11-04T17:37:40.421Z,101346.66
2018-11-04T17:41:44.502Z,101347.18
2018-11-04T17:45:48.680Z,101349.44
2018-11-04T17:49:52.856Z,101347.36
2018-11-04T17:53:56.775Z,101340.30
2018-11-04T17:58:00.918Z,101340.59
2018-11-04T18:02:05.041Z,101334.40
2018-11-04T18:06:08.977Z,101331.36
2018-11-04T18:10:13.837Z,101329.98
2018-11-04T18:14:17.807Z,101326.34
2018-11-04T18:18:21.696Z,101328.81
2018-11-04T18:22:25.812Z,101327.36
2018-11-04T18:26:29.822Z,101328.99
2018-11-04T18:30:33.736Z,101326.27
2018-11-04T18:34:37.666Z,101327.34
2018-11-04T18:38:41.597Z,101331.23
2018-11-04T18:42:45.887Z,101326.50
2018-11-04T18:46:50.018Z,101323.62
2018-11-04T18:50:53.906Z,101324.63
2018-11-04T18:54:58.081Z,101318.50
2018-11-04T18:59:02.037Z,101314.72
2018-11-04T19:03:05.931Z,101313.19
2018-11-04T19:07:10.259Z,101306.12
2018-11-04T19:11:14.431Z,101295.29
2018-11-04T19:15:18.272Z,101300.83
2018-11-04T19:19:22.210Z,101299.41
2018-11-04T19:23:26.488Z,101296.29
2018-11-04T19:27:30.759Z,101303.30
2018-11-04T19:31:34.722Z,101292.66
2018-11-04T19:35:38.852Z,101298.78
2018-11-04T19:39:42.846Z,101305.23
2018-11-04T19:43:46.968Z,101304.34
2018-11-04T19:47:50.947Z,101301.48
2018-11-04T19:51:55.075Z,101292.61
2018-11-04T19:55:59.000Z,101296.81
2018-11-04T20:00:03.225Z,101294.30
2018-11-04T20:04:07.282Z,101289.35
2018-11-04T20:08:11.302Z,101281.75
2018-11-04T20:12:20.532Z,101284.11
2018-11-04T20:16:24.519Z,101273.36
2018-11-04T20:20:28.460Z,101277.28
2018-11-04T20:26:42.515Z,101278.70
2018-11-04T20:30:46.442Z,101280.95
2018-11-04T20:34:50.786Z,101282.66
2018-11-04T20:39:00.202Z,101279.36
2018-11-04T20:43:05.368Z,101278.02
2018-11-04T20:47:10.089Z,101286.39
2018-11-04T20:51:14.309Z,101289.44
2018-11-04T20:55:18.574Z,101288.02
2018-11-04T20:59:22.443Z,101278.48
2018-11-04T21:03:27.668Z,101275.53
2018-11-04T21:07:32.025Z,101266.58
2018-11-04T21:11:36.227Z,101261.39
2018-11-04T21:15:40.189Z,101254.95
2018-11-04T21:19:44.268Z,101246.28
2018-11-04T21:23:48.184Z,101245.69
2018-11-04T21:27:52.082Z,101241.91
2018-11-04T21:31:56.149Z,101232.00
2018-11-04T21:36:00.077Z,101236.45
2018-11-04T21:40:04.608Z,101234.78
2018-11-04T21:44:08.760Z,101231.03
2018-11-04T21:48:12.522Z,101235.41
2018-11-04T21:52:16.579Z,101227.89
2018-11-04T21:56:20.616Z,101219.36
2018-11-04T22:00:24.742Z,101226.13
2018-11-04T22:04:28.822Z,101226.91
2018-11-04T22:08:32.769Z,101229.49
2018-11-04T22:12:36.756Z,101213.55
2018-11-04T22:16:40.883Z,101221.48
2018-11-04T22:20:44.948Z,101218.16
2018-11-04T22:24:48.897Z,101215.83
2018-11-04T22:28:52.788Z,101218.97
2018-11-04T22:32:56.758Z,101223.55
2018-11-04T22:37:00.878Z,101215.21
2018-11-04T22:41:04.999Z,101213.09
2018-11-04T22:45:10.556Z,101206.72
2018-11-04T22:49:14.485Z,101209.36
2018-11-04T22:53:18.453Z,101215.17
2018-11-04T22:57:23.016Z,101208.95
2018-11-04T23:01:27.312Z,101208.06
2018-11-04T23:05:31.247Z,101209.95
2018-11-04T23:09:35.200Z,101208.80
2018-11-04T23:13:39.278Z,101219.25
2018-11-04T23:17:43.399Z,101209.28
2018-11-04T23:21:48.022Z,101194.95
2018-11-04T23:25:51.996Z,101189.52
2018-11-04T23:29:56.339Z,101181.31
2018-11-04T23:34:00.271Z,101171.02
2018-11-04T23:38:05.116Z,101168.07
2018-11-04T23:42:09.096Z,101161.16
2018-11-04T23:46:13.059Z,101142.69
2018-11-04T23:50:17.519Z,101141.36
2018-11-04T23:54:21.380Z,101127.84
2018-11-04T23:58:25.539Z,101126.17
